createdAt,value
2018-04-18T04:09:32.528Z,1023.84
2018-04-18T04:09:58.005Z,1023.87
2018-04-18T04:10:23.486Z,1023.84
2018-04-18T04:10:48.957Z,1023.86
2018-04-18T04:11:14.414Z,1023.85
2018-04-18T04:11:40.005Z,1023.83
2018-04-18T04:12:05.486Z,1023.89
2018-04-18T04:12:31.024Z,1023.89
2018-04-18T04:12:56.457Z,1023.89
2018-04-18T04:13:21.899Z,1023.9
2018-04-18T04:13:47.524Z,1023.92
2018-04-18T04:14:13.048Z,1023.9
2018-04-18T04:14:38.546Z,1023.92
2018-04-18T04:15:04.076Z,1023.93
2018-04-18T04:15:29.610Z,1023.89
2018-04-18T04:15:55.141Z,1023.94
2018-04-18T04:16:20.692Z,1023.94
2018-04-18T04:16:46.264Z,1023.95
2018-04-18T04:17:11.680Z,1023.93
2018-04-18T04:17:37.275Z,1023.9
2018-04-18T04:18:03.101Z,1023.91
2018-04-18T04:18:28.639Z,1023.91
2018-04-18T04:18:54.044Z,1023.91
2018-04-18T04:19:19.667Z,1023.9
2018-04-18T04:19:45.958Z,1023.89
2018-04-18T04:20:11.387Z,1023.95
2018-04-18T04:20:37.723Z,1023.89
2018-04-18T04:21:02.722Z,1023.93
2018-04-18T04:21:28.224Z,1023.91
2018-04-18T04:21:53.698Z,1023.91
2018-04-18T04:22:19.174Z,1023.91
2018-04-18T04:22:44.669Z,1023.92
2018-04-18T04:23:10.200Z,1023.94
2018-04-18T04:23:35.738Z,1023.91
2018-04-18T04:24:01.231Z,1023.92
2018-04-18T04:24:26.733Z,1023.93
2018-04-18T04:24:52.152Z,1023.9
2018-04-18T04:25:17.843Z,1023.89
2018-04-18T04:25:43.479Z,1023.9
2018-04-18T04:26:09.094Z,1023.92
2018-04-18T04:26:34.499Z,1023.9
2018-04-18T04:26:59.963Z,1023.91
2018-04-18T04:27:25.475Z,1023.91
2018-04-18T04:27:51.049Z,1023.9
2018-04-18T04:28:16.510Z,1023.93
2018-04-18T04:28:42.423Z,1023.93
2018-04-18T04:29:08.540Z,1023.91
2018-04-18T04:29:34.063Z,1023.95
2018-04-18T04:30:00.276Z,1023.94
2018-04-18T04:30:25.429Z,1023.95
2018-04-18T04:30:50.899Z,1023.94
2018-04-18T04:31:16.532Z,1023.95
2018-04-18T04:31:42.431Z,1023.95
2018-04-18T04:32:08.578Z,1024.01
2018-04-18T04:32:34.204Z,1023.99
2018-04-18T04:32:59.687Z,1023.97
2018-04-18T04:33:25.275Z,1023.96
2018-04-18T04:33:50.721Z,1023.97
2018-04-18T04:34:16.199Z,1023.97
2018-04-18T04:34:41.819Z,1023.95
2018-04-18T04:35:07.431Z,1023.99
2018-04-18T04:35:32.901Z,1023.97
2018-04-18T04:35:58.380Z,1023.97
2018-04-18T04:36:23.916Z,1023.98
2018-04-18T04:36:49.468Z,1024.01
2018-04-18T04:37:14.929Z,1023.98
2018-04-18T04:37:40.368Z,1024
2018-04-18T04:38:05.829Z,1024.06
2018-04-18T04:38:31.364Z,1023.98
2018-04-18T04:38:56.864Z,1024.04
2018-04-18T04:39:22.380Z,1024.03
2018-04-18T04:39:47.850Z,1024.01
2018-04-18T04:40:13.370Z,1024.04
2018-04-18T04:40:38.889Z,1024.03
2018-04-18T04:41:04.446Z,1024.07
2018-04-18T04:41:29.813Z,1024.06
2018-04-18T04:41:55.327Z,1024.04
2018-04-18T04:42:20.830Z,1024.09
2018-04-18T04:42:46.307Z,1024.08
2018-04-18T04:43:11.793Z,1024.07
2018-04-18T04:43:37.326Z,1024.07
2018-04-18T04:44:02.835Z,1024.09
2018-04-18T04:44:28.398Z,1024.09
2018-04-18T04:44:53.967Z,1024.09
2018-04-18T04:45:19.471Z,1024.1
2018-04-18T04:45:44.995Z,1024.09
2018-04-18T04:46:10.652Z,1024.1
2018-04-18T04:46:36.085Z,1024.05
2018-04-18T04:47:01.594Z,1024.06
2018-04-18T04:47:27.047Z,1024.1
2018-04-18T04:47:52.666Z,1024.07
2018-04-18T04:48:18.218Z,1024.11
2018-04-18T04:48:44.065Z,1024.1
2018-04-18T04:49:09.517Z,1024.1
2018-04-18T04:49:35.125Z,1024.14
2018-04-18T04:50:00.477Z,1024.12
2018-04-18T04:50:26.124Z,1024.08
2018-04-18T04:50:51.740Z,1024.12
2018-04-18T04:51:17.057Z,1024.12
2018-04-18T04:51:42.529Z,1024.1
2018-04-18T04:52:08.238Z,1024.14
2018-04-18T04:52:33.719Z,1024.11
2018-04-18T04:52:59.252Z,1024.14
2018-04-18T04:53:24.613Z,1024.09
2018-04-18T04:53:50.150Z,1024.14
2018-04-18T04:54:15.643Z,1024.15
2018-04-18T04:54:41.206Z,1024.14
2018-04-18T04:55:06.735Z,1024.18
2018-04-18T04:55:32.199Z,1024.16
2018-04-18T04:55:57.968Z,1024.18
2018-04-18T04:56:23.462Z,1024.17
2018-04-18T04:56:48.828Z,1024.2
2018-04-18T04:57:14.582Z,1024.16
2018-04-18T04:57:39.954Z,1024.16
2018-04-18T04:58:05.418Z,1024.14
2018-04-18T04:58:30.909Z,1024.17
2018-04-18T04:58:56.413Z,1024.18
2018-04-18T04:59:21.869Z,1024.15
2018-04-18T04:59:47.486Z,1024.15
2018-04-18T05:00:13.451Z,1024.16
2018-04-18T05:00:41.094Z,1024.18
2018-04-18T05:01:06.674Z,1024.17
2018-04-18T05:01:33.571Z,1024.19
2018-04-18T05:02:03.227Z,1024.15
2018-04-18T05:02:31.699Z,1024.19
2018-04-18T05:02:59.808Z,1024.24
2018-04-18T05:03:27.566Z,1024.22
2018-04-18T05:03:53.911Z,1024.22
2018-04-18T05:05:22.006Z,1024.26
2018-04-18T05:05:47.885Z,1024.26
2018-04-18T05:06:13.420Z,1024.25
2018-04-18T05:06:39.011Z,1024.24
2018-04-18T05:07:04.482Z,1024.23
2018-04-18T05:07:29.892Z,1024.24
2018-04-18T05:07:55.377Z,1024.26
2018-04-18T05:09:01.170Z,1024.26
2018-04-18T05:09:27.170Z,1024.25
2018-04-18T05:09:52.483Z,1024.3
2018-04-18T05:10:17.986Z,1024.28
2018-04-18T05:10:43.521Z,1024.3
2018-04-18T05:11:09.082Z,1024.29
2018-04-18T05:11:35.361Z,1024.31
2018-04-18T05:12:01.029Z,1024.31
2018-04-18T05:12:26.653Z,1024.31
2018-04-18T05:12:53.242Z,1024.3
2018-04-18T05:13:18.857Z,1024.33
2018-04-18T05:13:44.358Z,1024.3
2018-04-18T05:14:09.852Z,1024.34
2018-04-18T05:14:35.285Z,1024.32
2018-04-18T05:15:00.832Z,1024.3
2018-04-18T05:15:26.227Z,1024.34
2018-04-18T05:15:51.723Z,1024.33
2018-04-18T05:16:17.193Z,1024.35
2018-04-18T05:16:42.728Z,1024.35
2018-04-18T05:17:08.190Z,1024.34
2018-04-18T05:17:33.605Z,1024.38
2018-04-18T05:17:59.162Z,1024.34
2018-04-18T05:18:24.644Z,1024.35
2018-04-18T05:18:50.192Z,1024.36
2018-04-18T05:19:15.742Z,1024.38
2018-04-18T05:19:41.243Z,1024.38
2018-04-18T05:20:06.696Z,1024.43
2018-04-18T05:20:32.233Z,1024.43
2018-04-18T05:20:57.745Z,1024.4
2018-04-18T05:21:23.260Z,1024.47
2018-04-18T05:21:48.817Z,1024.45
2018-04-18T05:22:14.155Z,1024.47
2018-04-18T05:22:39.726Z,1024.47
2018-04-18T05:23:05.319Z,1024.47
2018-04-18T05:23:30.871Z,1024.47
2018-04-18T05:23:56.401Z,1024.49
2018-04-18T05:24:21.858Z,1024.49
2018-04-18T05:24:47.395Z,1024.47
2018-04-18T05:25:12.827Z,1024.49
2018-04-18T05:25:38.330Z,1024.49
2018-04-18T05:26:03.787Z,1024.5
2018-04-18T05:26:29.266Z,1024.51
2018-04-18T05:26:54.713Z,1024.53
2018-04-18T05:27:20.198Z,1024.52
2018-04-18T05:27:45.615Z,1024.53
2018-04-18T05:28:11.129Z,1024.54
2018-04-18T05:28:36.595Z,1024.55
2018-04-18T05:29:02.134Z,1024.57
2018-04-18T05:29:27.592Z,1024.6
2018-04-18T05:29:53.102Z,1024.58
2018-04-18T05:30:18.586Z,1024.56
2018-04-18T05:30:44.190Z,1024.61
2018-04-18T05:31:09.744Z,1024.6
2018-04-18T05:31:35.116Z,1024.58
2018-04-18T05:32:00.596Z,1024.58
2018-04-18T05:32:26.175Z,1024.57
2018-04-18T05:32:51.720Z,1024.6
2018-04-18T05:33:17.183Z,1024.6
2018-04-18T05:33:42.673Z,1024.62
2018-04-18T05:34:08.127Z,1024.6
2018-04-18T05:34:33.574Z,1024.6
2018-04-18T05:34:59.105Z,1024.65
2018-04-18T05:35:24.592Z,1024.64
2018-04-18T05:35:50.053Z,1024.61
2018-04-18T05:36:15.551Z,1024.62
2018-04-18T05:36:41.098Z,1024.62
2018-04-18T05:37:06.508Z,1024.64
2018-04-18T05:37:31.972Z,1024.64
2018-04-18T05:37:57.560Z,1024.64
2018-04-18T05:38:23.079Z,1024.63
2018-04-18T05:38:48.539Z,1024.62
2018-04-18T05:39:14.052Z,1024.63
2018-04-18T05:39:39.528Z,1024.67
2018-04-18T05:40:05.026Z,1024.66
2018-04-18T05:40:30.494Z,1024.69
2018-04-18T05:40:55.970Z,1024.64
2018-04-18T05:41:21.425Z,1024.68
2018-04-18T05:41:46.929Z,1024.66
2018-04-18T05:42:12.407Z,1024.68
2018-04-18T05:42:37.852Z,1024.68
2018-04-18T05:43:03.406Z,1024.7
2018-04-18T05:43:28.864Z,1024.72
2018-04-18T05:43:54.325Z,1024.71
2018-04-18T05:44:19.848Z,1024.72
2018-04-18T05:44:45.362Z,1024.73
2018-04-18T05:45:10.815Z,1024.69
2018-04-18T05:45:36.256Z,1024.74
2018-04-18T05:46:01.734Z,1024.75
2018-04-18T05:46:27.302Z,1024.76
2018-04-18T05:46:52.757Z,1024.76
2018-04-18T05:47:18.201Z,1024.78
2018-04-18T05:47:43.707Z,1024.82
2018-04-18T05:48:09.178Z,1024.81
2018-04-18T05:48:34.741Z,1024.82
2018-04-18T05:49:00.100Z,1024.82
2018-04-18T05:49:25.595Z,1024.86
2018-04-18T05:49:51.278Z,1024.82
2018-04-18T05:50:16.772Z,1024.82
2018-04-18T05:50:42.317Z,1024.84
2018-04-18T05:51:08.174Z,1024.85
2018-04-18T05:51:33.309Z,1024.83
2018-04-18T05:51:58.823Z,1024.82
2018-04-18T05:52:24.474Z,1024.84
2018-04-18T05:52:49.872Z,1024.86
2018-04-18T05:53:15.529Z,1024.85
2018-04-18T05:53:41.155Z,1024.91
2018-04-18T05:54:06.776Z,1024.86
2018-04-18T05:54:32.352Z,1024.89
2018-04-18T05:54:57.880Z,1024.86
2018-04-18T05:55:23.629Z,1024.89
2018-04-18T05:55:49.166Z,1024.9
2018-04-18T05:56:14.833Z,1024.9
2018-04-18T05:56:40.357Z,1024.89
2018-04-18T05:57:05.881Z,1024.93
2018-04-18T05:57:31.489Z,1024.91
2018-04-18T05:57:56.985Z,1024.9
2018-04-18T05:58:22.452Z,1024.91
2018-04-18T05:58:48.041Z,1024.88
2018-04-18T05:59:13.615Z,1024.95
2018-04-18T05:59:39.118Z,1024.93
2018-04-18T06:00:04.754Z,1024.92
2018-04-18T06:00:30.192Z,1024.94
2018-04-18T06:00:55.866Z,1024.94
2018-04-18T06:01:21.307Z,1024.94
2018-04-18T06:01:46.873Z,1024.98
2018-04-18T06:02:12.617Z,1024.97
2018-04-18T06:02:38.241Z,1024.98
2018-04-18T06:03:03.672Z,1024.94
2018-04-18T06:03:29.479Z,1024.93
2018-04-18T06:03:54.969Z,1024.9
2018-04-18T06:04:20.745Z,1024.93
2018-04-18T06:04:46.232Z,1024.96
2018-04-18T06:05:11.775Z,1024.92
2018-04-18T06:05:37.450Z,1024.95
2018-04-18T06:06:03.192Z,1024.96
2018-04-18T06:06:28.753Z,1025.01
2018-04-18T06:06:54.303Z,1024.98
2018-04-18T06:07:19.795Z,1024.97
2018-04-18T06:07:45.446Z,1024.99
2018-04-18T06:08:11.001Z,1024.94
2018-04-18T06:08:36.635Z,1024.97
2018-04-18T06:09:02.518Z,1024.98
2018-04-18T06:09:28.177Z,1024.99
2018-04-18T06:09:53.866Z,1024.99
2018-04-18T06:10:19.679Z,1025.04
2018-04-18T06:10:45.264Z,1024.98
2018-04-18T06:11:10.804Z,1025
2018-04-18T06:11:36.432Z,1025
2018-04-18T06:12:01.881Z,1024.98
2018-04-18T06:12:27.450Z,1025.05
2018-04-18T06:12:53.001Z,1025.02
2018-04-18T06:13:18.628Z,1025.04
2018-04-18T06:13:44.261Z,1025.03
2018-04-18T06:14:10.200Z,1025.01
2018-04-18T06:14:35.258Z,1025.03
2018-04-18T06:15:00.803Z,1025.01
2018-04-18T06:15:26.623Z,1025.06
2018-04-18T06:15:52.323Z,1025.04
2018-04-18T06:16:17.891Z,1025.08
2018-04-18T06:16:43.421Z,1025.09
2018-04-18T06:17:08.983Z,1025.08
2018-04-18T06:17:34.475Z,1025.05
2018-04-18T06:17:59.982Z,1025.04
2018-04-18T06:18:25.605Z,1025.09
2018-04-18T06:18:51.092Z,1025.07
2018-04-18T06:19:16.662Z,1025.09
2018-04-18T06:19:42.098Z,1025.1
2018-04-18T06:20:07.716Z,1025.08
2018-04-18T06:20:33.169Z,1025.05
2018-04-18T06:20:58.829Z,1025.12
2018-04-18T06:21:24.450Z,1025.13
2018-04-18T06:21:49.900Z,1025.13
2018-04-18T06:22:15.386Z,1025.15
2018-04-18T06:22:40.941Z,1025.12
2018-04-18T06:23:06.348Z,1025.18
2018-04-18T06:23:32.122Z,1025.16
2018-04-18T06:23:57.625Z,1025.18
2018-04-18T06:24:23.136Z,1025.13
2018-04-18T06:24:48.672Z,1025.13
2018-04-18T06:25:14.264Z,1025.14
2018-04-18T06:25:39.825Z,1025.14
2018-04-18T06:26:05.389Z,1025.13
2018-04-18T06:26:31.024Z,1025.16
2018-04-18T06:26:56.556Z,1025.17
2018-04-18T06:27:21.968Z,1025.14
2018-04-18T06:27:47.556Z,1025.14
2018-04-18T06:28:13.040Z,1025.16
2018-04-18T06:28:38.620Z,1025.16
2018-04-18T06:29:04.145Z,1025.19
2018-04-18T06:29:29.661Z,1025.16
2018-04-18T06:29:55.432Z,1025.17
2018-04-18T06:30:20.931Z,1025.15
2018-04-18T06:30:46.400Z,1025.2
2018-04-18T06:31:11.929Z,1025.18
2018-04-18T06:31:37.503Z,1025.15
2018-04-18T06:32:02.873Z,1025.13
2018-04-18T06:32:28.411Z,1025.12
2018-04-18T06:32:53.950Z,1025.15
2018-04-18T06:33:19.476Z,1025.16
2018-04-18T06:33:44.892Z,1025.16
2018-04-18T06:34:10.492Z,1025.18
2018-04-18T06:34:36.127Z,1025.17
2018-04-18T06:35:01.549Z,1025.17
2018-04-18T06:35:27.135Z,1025.17
2018-04-18T06:35:52.754Z,1025.16
2018-04-18T06:36:18.203Z,1025.15
2018-04-18T06:36:43.711Z,1025.17
2018-04-18T06:37:09.197Z,1025.2
2018-04-18T06:37:34.743Z,1025.22
2018-04-18T06:38:00.280Z,1025.24
2018-04-18T06:38:25.781Z,1025.21
2018-04-18T06:38:51.383Z,1025.23
2018-04-18T06:39:16.833Z,1025.24
2018-04-18T06:39:42.425Z,1025.27
2018-04-18T06:40:07.935Z,1025.25
2018-04-18T06:40:33.581Z,1025.25
2018-04-18T06:40:59.044Z,1025.24
2018-04-18T06:41:24.577Z,1025.27
2018-04-18T06:41:50.174Z,1025.27
2018-04-18T06:42:15.545Z,1025.24
2018-04-18T06:42:41.035Z,1025.28
2018-04-18T06:43:06.664Z,1025.3
2018-04-18T06:43:32.179Z,1025.3
2018-04-18T06:43:57.677Z,1025.31
2018-04-18T06:44:23.199Z,1025.35
2018-04-18T06:44:48.690Z,1025.28
2018-04-18T06:45:14.211Z,1025.35
2018-04-18T06:45:39.790Z,1025.31
2018-04-18T06:46:05.263Z,1025.32
2018-04-18T06:46:30.860Z,1025.35
2018-04-18T06:46:56.343Z,1025.31
2018-04-18T06:47:21.912Z,1025.33
2018-04-18T06:47:47.375Z,1025.33
2018-04-18T06:48:12.890Z,1025.32
2018-04-18T06:48:38.397Z,1025.34
2018-04-18T06:49:03.934Z,1025.37
2018-04-18T06:49:29.511Z,1025.35
2018-04-18T06:50:09.194Z,1025.32
2018-04-18T06:57:21.910Z,1025.42
2018-04-18T07:10:09.907Z,1025.56
2018-04-18T07:12:08.107Z,1025.58
2018-04-18T07:17:31.771Z,1025.58
2018-04-18T07:18:11.865Z,1025.63
2018-04-18T07:18:38.994Z,1025.64
2018-04-18T07:19:09.588Z,1025.64
2018-04-18T07:19:36.017Z,1025.68
2018-04-18T07:20:06.886Z,1025.63
2018-04-18T07:20:32.895Z,1025.64
2018-04-18T07:21:03.145Z,1025.61
2018-04-18T07:21:39.575Z,1025.64
2018-04-18T07:22:13.012Z,1025.63
2018-04-18T07:22:37.293Z,1025.64
2018-04-18T07:23:03.673Z,1025.65
2018-04-18T07:23:31.480Z,1025.63
2018-04-18T07:23:58.144Z,1025.65
2018-04-18T07:24:33.794Z,1025.65
2018-04-18T07:24:59.267Z,1025.68
2018-04-18T07:25:24.974Z,1025.69
2018-04-18T07:25:52.638Z,1025.69
2018-04-18T07:26:18.211Z,1025.66
2018-04-18T07:27:23.517Z,1025.69
2018-04-18T07:27:55.007Z,1025.64
2018-04-18T07:28:20.197Z,1025.7
2018-04-18T07:28:58.912Z,1025.68
2018-04-18T07:29:24.420Z,1025.71
2018-04-18T07:29:53.168Z,1025.67
2018-04-18T07:30:18.692Z,1025.7
2018-04-18T07:30:50.962Z,1025.72
2018-04-18T07:31:25.195Z,1025.7
2018-04-18T07:31:50.230Z,1025.69
2018-04-18T07:32:16.172Z,1025.66
2018-04-18T07:32:41.831Z,1025.66
2018-04-18T07:33:10.971Z,1025.68
2018-04-18T07:33:35.724Z,1025.67
2018-04-18T07:35:12.840Z,1025.7
2018-04-18T07:35:38.278Z,1025.71
2018-04-18T07:36:03.635Z,1025.74
2018-04-18T07:36:29.271Z,1025.68
2018-04-18T07:36:54.830Z,1025.68
2018-04-18T07:37:20.340Z,1025.71
2018-04-18T07:37:45.805Z,1025.7
2018-04-18T07:38:11.361Z,1025.64
2018-04-18T07:38:37.153Z,1025.66
2018-04-18T07:39:02.577Z,1025.67
2018-04-18T07:39:28.074Z,1025.65
2018-04-18T07:39:53.665Z,1025.64
2018-04-18T07:40:19.167Z,1025.63
2018-04-18T07:40:44.738Z,1025.67
2018-04-18T07:41:10.159Z,1025.64
2018-04-18T07:41:35.767Z,1025.63
2018-04-18T07:42:01.282Z,1025.63
2018-04-18T07:42:26.916Z,1025.63
2018-04-18T07:42:52.528Z,1025.64
2018-04-18T07:43:17.952Z,1025.63
2018-04-18T07:43:43.507Z,1025.62
2018-04-18T07:44:08.972Z,1025.63
2018-04-18T07:44:34.448Z,1025.62
2018-04-18T07:44:59.931Z,1025.65
2018-04-18T07:45:25.458Z,1025.62
2018-04-18T07:45:51.039Z,1025.69
2018-04-18T07:46:16.515Z,1025.65
2018-04-18T07:46:42.054Z,1025.65
2018-04-18T07:47:07.704Z,1025.66
2018-04-18T07:47:33.278Z,1025.66
2018-04-18T07:47:58.707Z,1025.67
2018-04-18T07:48:24.352Z,1025.67
2018-04-18T07:48:49.929Z,1025.65
2018-04-18T07:49:15.556Z,1025.65
2018-04-18T07:49:40.959Z,1025.68
2018-04-18T07:50:06.573Z,1025.63
2018-04-18T07:50:32.064Z,1025.61
2018-04-18T07:50:57.719Z,1025.65
2018-04-18T07:51:23.405Z,1025.66
2018-04-18T07:51:48.874Z,1025.62
2018-04-18T07:52:14.331Z,1025.67
2018-04-18T07:52:39.859Z,1025.66
2018-04-18T07:53:05.329Z,1025.66
2018-04-18T07:53:30.896Z,1025.62
2018-04-18T07:53:56.503Z,1025.68
2018-04-18T07:54:21.992Z,1025.69
2018-04-18T07:54:47.592Z,1025.72
2018-04-18T07:55:13.318Z,1025.74
2018-04-18T07:55:38.707Z,1025.66
2018-04-18T07:56:04.394Z,1025.71
2018-04-18T07:56:29.980Z,1025.67
2018-04-18T07:56:55.392Z,1025.71
2018-04-18T07:57:20.903Z,1025.71
2018-04-18T07:57:46.395Z,1025.71
2018-04-18T07:58:11.865Z,1025.74
2018-04-18T07:58:37.442Z,1025.73
2018-04-18T07:59:03.127Z,1025.7
2018-04-18T07:59:28.609Z,1025.7
2018-04-18T07:59:54.171Z,1025.71
2018-04-18T08:00:19.620Z,1025.7
2018-04-18T08:00:45.198Z,1025.69
2018-04-18T08:01:10.684Z,1025.72
2018-04-18T08:01:36.177Z,1025.71
2018-04-18T08:02:01.821Z,1025.7
2018-04-18T08:02:27.718Z,1025.71
2018-04-18T08:02:53.169Z,1025.74
2018-04-18T08:03:18.770Z,1025.74
2018-04-18T08:03:44.223Z,1025.73
2018-04-18T08:04:09.863Z,1025.75
2018-04-18T08:04:35.309Z,1025.76
2018-04-18T08:05:00.885Z,1025.73
2018-04-18T08:05:26.379Z,1025.72
2018-04-18T08:05:52.063Z,1025.73
2018-04-18T08:06:17.548Z,1025.74
2018-04-18T08:06:43.079Z,1025.81
2018-04-18T08:07:08.640Z,1025.76
2018-04-18T08:07:34.097Z,1025.76
2018-04-18T08:07:59.689Z,1025.76
2018-04-18T08:08:25.206Z,1025.75
2018-04-18T08:08:50.783Z,1025.76
2018-04-18T08:09:16.305Z,1025.76
2018-04-18T08:09:41.833Z,1025.74
2018-04-18T08:10:07.318Z,1025.8
2018-04-18T08:10:32.971Z,1025.75
2018-04-18T08:10:58.562Z,1025.75
2018-04-18T08:11:24.364Z,1025.8
2018-04-18T08:11:49.876Z,1025.79
2018-04-18T08:12:15.485Z,1025.75
2018-04-18T08:12:40.805Z,1025.77
2018-04-18T08:13:06.348Z,1025.82
2018-04-18T08:13:31.857Z,1025.78
2018-04-18T08:13:57.327Z,1025.78
2018-04-18T08:14:22.899Z,1025.76
2018-04-18T08:14:48.300Z,1025.81
2018-04-18T08:15:14.052Z,1025.81
2018-04-18T08:15:39.651Z,1025.8
2018-04-18T08:16:05.254Z,1025.76
2018-04-18T08:16:30.752Z,1025.77
2018-04-18T08:16:56.430Z,1025.76
2018-04-18T08:17:22.000Z,1025.79
2018-04-18T08:17:47.691Z,1025.79
2018-04-18T08:18:13.228Z,1025.8
2018-04-18T08:18:38.691Z,1025.82
2018-04-18T08:19:04.373Z,1025.79
2018-04-18T08:19:29.759Z,1025.79
2018-04-18T08:19:55.397Z,1025.77
2018-04-18T08:20:20.992Z,1025.77
2018-04-18T08:20:46.710Z,1025.73
2018-04-18T08:21:12.276Z,1025.76
2018-04-18T08:21:37.750Z,1025.77
2018-04-18T08:22:03.282Z,1025.77
2018-04-18T08:22:28.823Z,1025.75
2018-04-18T08:22:54.251Z,1025.76
2018-04-18T08:23:19.839Z,1025.8
2018-04-18T08:23:45.292Z,1025.78
2018-04-18T08:24:10.871Z,1025.75
2018-04-18T08:24:36.435Z,1025.78
2018-04-18T08:25:02.162Z,1025.78
2018-04-18T08:25:27.730Z,1025.75
2018-04-18T08:25:53.223Z,1025.78
2018-04-18T08:26:18.725Z,1025.75
2018-04-18T08:26:44.442Z,1025.77
2018-04-18T08:27:09.886Z,1025.81
2018-04-18T08:27:35.324Z,1025.79
2018-04-18T08:28:00.925Z,1025.81
2018-04-18T08:28:26.443Z,1025.85
2018-04-18T08:28:51.859Z,1025.82
2018-04-18T08:29:17.419Z,1025.83
2018-04-18T08:29:42.929Z,1025.87
2018-04-18T08:30:08.392Z,1025.82
2018-04-18T08:30:33.884Z,1025.8
2018-04-18T08:30:59.625Z,1025.84
2018-04-18T08:31:25.093Z,1025.81
2018-04-18T08:31:50.595Z,1025.85
2018-04-18T08:32:16.128Z,1025.86
2018-04-18T08:32:41.733Z,1025.87
2018-04-18T08:33:07.290Z,1025.85
2018-04-18T08:33:32.778Z,1025.83
2018-04-18T08:33:58.390Z,1025.87
2018-04-18T08:34:23.996Z,1025.85
2018-04-18T08:34:49.312Z,1025.87
2018-04-18T08:35:14.938Z,1025.87
2018-04-18T08:35:40.378Z,1025.91
2018-04-18T08:36:05.973Z,1025.87
2018-04-18T08:36:31.589Z,1025.88
2018-04-18T08:36:57.081Z,1025.89
2018-04-18T08:37:22.749Z,1025.86
2018-04-18T08:37:48.381Z,1025.88
2018-04-18T08:38:13.912Z,1025.86
2018-04-18T08:38:39.380Z,1025.86
2018-04-18T08:39:04.898Z,1025.88
2018-04-18T08:39:30.399Z,1025.91
2018-04-18T08:39:55.906Z,1025.89
2018-04-18T08:40:21.423Z,1025.9
2018-04-18T08:40:47.007Z,1025.95
2018-04-18T08:41:12.651Z,1025.9
2018-04-18T08:41:38.285Z,1025.92
2018-04-18T08:42:03.920Z,1025.92
2018-04-18T08:42:29.460Z,1025.88
2018-04-18T08:42:54.839Z,1025.92
2018-04-18T08:43:20.368Z,1025.9
2018-04-18T08:43:45.887Z,1025.92
2018-04-18T08:44:11.331Z,1025.88
2018-04-18T08:44:36.887Z,1025.9
2018-04-18T08:45:02.295Z,1025.89
2018-04-18T08:45:27.780Z,1025.89
2018-04-18T08:45:53.363Z,1025.88
2018-04-18T08:46:18.876Z,1025.89
2018-04-18T08:46:44.341Z,1025.91
2018-04-18T08:47:09.848Z,1025.9
2018-04-18T08:47:35.482Z,1025.91
2018-04-18T08:48:01.036Z,1025.94
2018-04-18T08:48:26.615Z,1025.94
2018-04-18T08:48:52.203Z,1025.9
2018-04-18T08:49:17.757Z,1025.92
2018-04-18T08:49:43.190Z,1025.93
2018-04-18T08:50:08.739Z,1025.94
2018-04-18T08:50:34.164Z,1025.91
2018-04-18T08:50:59.699Z,1025.99
2018-04-18T08:51:25.333Z,1025.92
2018-04-18T08:51:50.824Z,1025.94
2018-04-18T08:52:16.594Z,1025.91
2018-04-18T08:52:42.037Z,1025.93
2018-04-18T08:53:07.491Z,1025.92
2018-04-18T08:53:33.056Z,1025.92
2018-04-18T08:53:58.548Z,1025.92
2018-04-18T08:54:24.119Z,1025.89
2018-04-18T08:54:49.653Z,1025.9
2018-04-18T08:55:15.171Z,1025.9
2018-04-18T08:55:40.751Z,1025.9
2018-04-18T08:56:06.188Z,1025.93
2018-04-18T08:56:31.820Z,1025.93
2018-04-18T08:56:57.322Z,1025.91
2018-04-18T08:57:22.754Z,1025.94
2018-04-18T08:57:48.488Z,1025.89
2018-04-18T08:58:14.026Z,1025.89
2018-04-18T08:58:39.646Z,1025.92
2018-04-18T08:59:05.082Z,1025.95
2018-04-18T08:59:30.789Z,1025.91
2018-04-18T08:59:56.170Z,1025.91
2018-04-18T09:00:21.761Z,1025.88
2018-04-18T09:00:47.266Z,1025.95
2018-04-18T09:01:12.721Z,1025.91
2018-04-18T09:01:38.600Z,1025.93
2018-04-18T09:02:03.825Z,1025.94
2018-04-18T09:02:29.357Z,1025.94
2018-04-18T09:02:54.836Z,1025.96
2018-04-18T09:03:20.318Z,1025.96
2018-04-18T09:03:45.839Z,1025.92
2018-04-18T09:04:11.445Z,1025.96
2018-04-18T09:04:36.957Z,1025.92
2018-04-18T09:05:02.534Z,1025.98
2018-04-18T09:05:28.105Z,1025.95
2018-04-18T09:05:53.590Z,1025.93
2018-04-18T09:06:19.125Z,1025.91
2018-04-18T09:06:44.610Z,1025.88
2018-04-18T09:07:10.193Z,1025.92
2018-04-18T09:07:35.761Z,1025.89
2018-04-18T09:08:01.233Z,1025.87
2018-04-18T09:08:26.835Z,1025.9
2018-04-18T09:08:52.377Z,1025.9
2018-04-18T09:09:17.911Z,1025.93
2018-04-18T09:09:43.383Z,1025.83
2018-04-18T09:10:08.902Z,1025.88
2018-04-18T09:10:34.393Z,1025.87
2018-04-18T09:10:59.927Z,1025.91
2018-04-18T09:11:25.594Z,1025.86
2018-04-18T09:11:51.030Z,1025.88
2018-04-18T09:12:16.657Z,1025.89
2018-04-18T09:12:42.071Z,1025.85
2018-04-18T09:13:07.670Z,1025.85
2018-04-18T09:13:33.137Z,1025.88
2018-04-18T09:13:58.671Z,1025.86
2018-04-18T09:14:24.200Z,1025.85
2018-04-18T09:14:49.773Z,1025.85
2018-04-18T09:15:15.263Z,1025.86
2018-04-18T09:15:40.672Z,1025.89
2018-04-18T09:16:06.281Z,1025.89
2018-04-18T09:16:31.786Z,1025.85
2018-04-18T09:16:57.323Z,1025.88
2018-04-18T09:17:22.857Z,1025.88
2018-04-18T09:17:48.334Z,1025.87
2018-04-18T09:18:13.962Z,1025.86
2018-04-18T09:18:39.504Z,1025.9
2018-04-18T09:19:05.045Z,1025.92
2018-04-18T09:19:30.589Z,1025.88
2018-04-18T09:19:56.048Z,1025.94
2018-04-18T09:20:21.545Z,1025.96
2018-04-18T09:20:46.986Z,1025.93
2018-04-18T09:21:12.544Z,1025.94
2018-04-18T09:21:37.997Z,1025.96
2018-04-18T09:22:03.484Z,1025.96
2018-04-18T09:22:29.067Z,1025.95
2018-04-18T09:22:54.629Z,1025.98
2018-04-18T09:23:20.113Z,1025.95
2018-04-18T09:23:45.638Z,1025.95
2018-04-18T09:24:11.243Z,1025.97
2018-04-18T09:24:36.676Z,1025.95
2018-04-18T09:25:02.301Z,1025.96
2018-04-18T09:25:27.800Z,1025.95
2018-04-18T09:25:53.313Z,1025.92
2018-04-18T09:26:18.826Z,1025.94
2018-04-18T09:26:44.339Z,1025.94
2018-04-18T09:27:10.087Z,1025.9
2018-04-18T09:27:35.572Z,1025.89
2018-04-18T09:28:01.137Z,1025.94
2018-04-18T09:28:26.642Z,1025.9
2018-04-18T09:28:52.225Z,1025.92
2018-04-18T09:29:17.789Z,1025.93
2018-04-18T09:29:43.324Z,1025.9
2018-04-18T09:30:08.747Z,1025.9
2018-04-18T09:30:34.391Z,1025.9
2018-04-18T09:30:59.891Z,1025.87
2018-04-18T09:31:25.590Z,1025.9
2018-04-18T09:31:51.017Z,1025.91
2018-04-18T09:32:16.624Z,1025.91
2018-04-18T09:32:42.167Z,1025.87
2018-04-18T09:33:07.628Z,1025.89
2018-04-18T09:33:33.146Z,1025.91
2018-04-18T09:33:58.756Z,1025.88
2018-04-18T09:34:24.198Z,1025.88
2018-04-18T09:34:49.722Z,1025.86
2018-04-18T09:35:15.165Z,1025.86
2018-04-18T09:35:40.691Z,1025.91
2018-04-18T09:36:06.190Z,1025.89
2018-04-18T09:36:31.632Z,1025.88
2018-04-18T09:36:57.186Z,1025.85
2018-04-18T09:37:22.657Z,1025.93
2018-04-18T09:37:48.121Z,1025.87
2018-04-18T09:38:13.612Z,1025.86
2018-04-18T09:38:39.103Z,1025.85
2018-04-18T09:39:04.586Z,1025.86
2018-04-18T09:39:30.021Z,1025.87
2018-04-18T09:39:55.484Z,1025.88
2018-04-18T09:40:20.961Z,1025.85
2018-04-18T09:40:46.446Z,1025.84
2018-04-18T09:41:11.951Z,1025.82
2018-04-18T09:41:37.431Z,1025.86
2018-04-18T09:42:02.852Z,1025.82
2018-04-18T09:42:28.351Z,1025.84
2018-04-18T09:42:53.863Z,1025.81
2018-04-18T09:43:19.296Z,1025.8
2018-04-18T09:43:44.825Z,1025.77
2018-04-18T09:44:10.275Z,1025.82
2018-04-18T09:44:35.765Z,1025.83
2018-04-18T09:45:01.272Z,1025.84
2018-04-18T09:45:26.814Z,1025.86
2018-04-18T09:45:52.326Z,1025.85
2018-04-18T09:46:17.781Z,1025.83
2018-04-18T09:46:43.250Z,1025.86
2018-04-18T09:47:08.686Z,1025.81
2018-04-18T09:47:34.155Z,1025.81
2018-04-18T09:47:59.648Z,1025.81
2018-04-18T09:48:25.150Z,1025.83
2018-04-18T09:48:50.609Z,1025.8
2018-04-18T09:49:16.101Z,1025.83
2018-04-18T09:49:41.585Z,1025.84
2018-04-18T09:50:07.053Z,1025.87
2018-04-18T09:50:32.500Z,1025.82
2018-04-18T09:50:58.048Z,1025.84